Alleyton, TX

4:15 PM CDT on October 24, 2014 (GMT -0500)
Frelsburg | Change Station
CLOSE
Current Station
Personal Weather Station
Location: New Ulm, TX
Elevation: 360 ft
Nearby Weather Stations

Elev 360 ft 29.85 °N, 96.53 °W | Updated 12 seconds ago

Clear
Clear
83.7 °F
Feels Like 84 °F
N
1.0
Wind Variable Wind from NE
Gusts 5.0 mph

Today
High -- | Low -- °F
--% Chance of Precip.
Yesterday
High -- | Low -- °F
Precip. -- in
7:33 AM 6:45 PM
New Moon, 1% visible
Pressure 30.08 in
Visibility 2.0 miles
Clouds Clear
Heat Index 84 °F
Dew Point 60 °F
Humidity 44%
Rainfall 0.00 in
Snow Depth Not available.
UV 3 out of 12
Pollen 5.00 out of 12
Air Quality Not available.
Flu Activity Sporadic
METAR K3T5 242055Z AUTO 00000KT 2SM HZ CLR 29/17 A3008 RMK AO2 VIS 1 1/4V5 T02860165

More Conditions Fewer Conditions

Pressure 30.08 in
Visibility 2.0 miles
Clouds Clear
Heat Index 84 °F
Dew Point 60 °F
Humidity 44%
Rainfall 0.00 in
Snow Depth Not available.
UV 3 out of 12
Pollen 5.00 out of 12
Air Quality Not available.
Flu Activity Sporadic
METAR K3T5 242055Z AUTO 00000KT 2SM HZ CLR 29/17 A3008 RMK AO2 VIS 1 1/4V5 T02860165

More Conditions Fewer Conditions

10-Day Weather Forecast

Almanac

Astronomy

Oct. 24, 2014 Rise Set
Actual Time 7:33 AM CDT 6:45 PM CDT
Civil Twilight 7:09 AM CDT 7:10 PM CDT
Nautical Twilight 6:41 AM CDT 7:38 PM CDT
Astronomical Twilight 6:13 AM CDT 8:06 PM CDT
Moon 8:11 AM CDT 7:30 PM CDT
Length of Visible Light 12h 01m
Length of Day
11h 12m
Tomorrow will be 1m 38s shorter.
New Moon, 1% of the Moon is Illuminated
Today
New Moon
Oct 30
First Quarter
Nov 6
Full
Nov 14
Last Quarter
Nov 22
New

Today's Extremes

State Highs State Lows

Community

WunderPhotos

Upload Photos

1,764,659 photos uploaded!

WunderBlogs® & News

Nearby

Snow Depth

Station Depth Elevation
No new snow has been reported.

Earthquake Activity

City Distance Mag. Time & Date
No recent earthquake activity has been reported nearby.
Minimum magnitude displayed is 2.5.

Coastal Water Temperatures

Place Temperature
No Stations Reporting

Nearby Weather Stations